Time;durP1;ratioP1;P1;durP2;ratioP2;P2;SDS_P1;SDS_P2;PMS_P1;PMS_P2;Temp;Humidity;BMP_temperature;BMP_pressure;BME280_temperature;BME280_humidity;BME280_pressure;Samples;Min_cycle;Max_cycle;Signal;HPM_P1;HPM_P2
2022/05/26 00:02:23;;;;;;;2.67;1.93;;;17.50;1.00;;;;;;5050955;28;20246;-55
2022/05/26 00:04:49;;;;;;;2.10;1.47;;;17.50;1.00;;;;;;5047097;28;20194;-56
2022/05/26 00:07:15;;;;;;;2.00;1.73;;;17.50;1.00;;;;;;5050104;28;20565;-54
2022/05/26 00:09:42;;;;;;;2.33;1.57;;;17.50;1.00;;;;;;5053784;28;20549;-55
2022/05/26 00:12:12;;;;;;;3.53;1.90;;;17.60;1.00;;;;;;5048019;28;20450;-54
2022/05/26 00:14:39;;;;;;;2.43;1.80;;;17.70;1.00;;;;;;5053595;28;20474;-55
2022/05/26 00:17:04;;;;;;;3.57;2.03;;;17.80;1.00;;;;;;5049270;28;20455;-55
2022/05/26 00:19:30;;;;;;;3.23;1.90;;;17.80;1.00;;;;;;5048656;28;20455;-55
2022/05/26 00:21:55;;;;;;;2.10;1.90;;;17.90;1.00;;;;;;5045140;28;20518;-55
2022/05/26 00:24:21;;;;;;;2.30;2.10;;;17.90;1.00;;;;;;5048036;28;20205;-55
2022/05/26 00:26:48;;;;;;;2.90;2.23;;;17.90;1.00;;;;;;5050516;28;20200;-54
2022/05/26 00:29:13;;;;;;;4.80;1.80;;;17.90;1.00;;;;;;5046836;28;20827;-54
2022/05/26 00:31:39;;;;;;;2.30;2.10;;;17.80;1.00;;;;;;5044910;28;20458;-55
2022/05/26 00:34:04;;;;;;;2.50;2.20;;;17.70;1.00;;;;;;5046808;28;20199;-56
2022/05/26 00:36:41;;;;;;;3.50;1.77;;;17.60;1.00;;;;;;5047205;28;20278;-54
2022/05/26 00:39:13;;;;;;;2.80;2.40;;;17.40;1.00;;;;;;5049340;28;20196;-53
2022/05/26 00:42:06;;;;;;;3.40;2.70;;;17.30;1.00;;;;;;5053833;28;21226;-55
2022/05/26 00:44:33;;;;;;;2.63;2.03;;;17.30;1.00;;;;;;5046456;28;20450;-53
2022/05/26 00:47:21;;;;;;;3.27;2.60;;;17.20;1.00;;;;;;5046779;28;20952;-57
2022/05/26 00:49:53;;;;;;;2.00;1.80;;;17.10;1.00;;;;;;5048827;28;20470;-54
2022/05/26 00:52:23;;;;;;;3.90;2.13;;;17.00;1.00;;;;;;5048256;28;20443;-55
2022/05/26 00:54:52;;;;;;;2.37;1.97;;;16.90;1.00;;;;;;5045380;28;20935;-54
2022/05/26 00:57:33;;;;;;;3.00;2.80;;;16.90;1.00;;;;;;5049820;28;20451;-53
2022/05/26 01:00:03;;;;;;;2.57;2.20;;;16.80;1.00;;;;;;5047855;28;20939;-56
2022/05/26 01:02:36;;;;;;;3.90;2.50;;;16.70;1.00;;;;;;5049939;28;20424;-54
2022/05/26 01:05:10;;;;;;;2.53;2.10;;;16.70;1.00;;;;;;5042707;28;20496;-56
2022/05/26 01:07:38;;;;;;;2.70;2.00;;;16.70;1.00;;;;;;5048861;28;20481;-55
2022/05/26 01:10:06;;;;;;;6.20;2.47;;;16.60;1.00;;;;;;5045898;28;20582;-56
2022/05/26 01:12:31;;;;;;;3.20;1.90;;;16.70;1.00;;;;;;5048731;28;20804;-53
2022/05/26 01:15:03;;;;;;;2.67;1.87;;;16.60;1.00;;;;;;5048386;28;20428;-55
2022/05/26 01:17:42;;;;;;;3.07;2.30;;;16.70;1.00;;;;;;5046148;28;20637;-56
2022/05/26 01:20:33;;;;;;;3.83;2.00;;;16.60;1.00;;;;;;5045862;28;20458;-53
2022/05/26 01:23:41;;;;;;;3.40;1.87;;;16.60;1.00;;;;;;5046080;28;20923;-57
2022/05/26 01:26:19;;;;;;;2.00;1.83;;;16.50;1.00;;;;;;5041045;28;21017;-53
2022/05/26 01:28:57;;;;;;;3.13;2.20;;;16.60;1.00;;;;;;5045258;28;20477;-53
2022/05/26 01:32:05;;;;;;;2.30;2.10;;;16.60;1.00;;;;;;5047750;28;21108;-55
2022/05/26 01:34:52;;;;;;;3.40;2.20;;;16.60;1.00;;;;;;5044853;28;20421;-55
2022/05/26 01:37:23;;;;;;;3.90;2.20;;;16.60;1.00;;;;;;5043604;28;20520;-54
2022/05/26 01:40:16;;;;;;;2.10;1.63;;;16.60;1.00;;;;;;5046990;28;20441;-56
2022/05/26 01:42:50;;;;;;;2.20;2.00;;;16.70;1.00;;;;;;5047106;28;20447;-56
2022/05/26 01:45:26;;;;;;;3.57;1.90;;;16.60;1.00;;;;;;5048548;28;20480;-54
2022/05/26 01:48:24;;;;;;;3.07;2.00;;;16.60;1.00;;;;;;5048518;28;20902;-57
2022/05/26 01:51:20;;;;;;;2.57;1.93;;;16.20;1.00;;;;;;5044204;28;21913;-53
2022/05/26 01:54:01;;;;;;;3.20;1.67;;;16.50;1.00;;;;;;5049163;28;20458;-56
2022/05/26 01:56:53;;;;;;;3.13;1.50;;;16.50;1.00;;;;;;5047548;28;20439;-53
2022/05/26 01:59:23;;;;;;;5.10;1.97;;;16.50;1.00;;;;;;5047286;28;20413;-53
2022/05/26 02:02:02;;;;;;;2.70;1.53;;;16.50;1.00;;;;;;5048457;28;20474;-55
2022/05/26 02:04:42;;;;;;;1.40;1.30;;;16.50;1.00;;;;;;5043472;28;20430;-54
2022/05/26 02:07:19;;;;;;;1.90;1.30;;;16.60;1.00;;;;;;5049165;28;20568;-53
2022/05/26 02:09:45;;;;;;;3.77;1.80;;;16.60;1.00;;;;;;5048092;28;20468;-55
2022/05/26 02:12:27;;;;;;;3.63;1.60;;;16.60;1.00;;;;;;5049402;28;20995;-56
2022/05/26 02:14:59;;;;;;;1.70;1.60;;;16.70;1.00;;;;;;5052105;28;20234;-55
2022/05/26 02:17:34;;;;;;;2.60;1.63;;;16.70;1.00;;;;;;5052336;28;20454;-55
2022/05/26 02:20:08;;;;;;;2.50;1.60;;;16.70;1.00;;;;;;5050649;28;20460;-55
2022/05/26 02:22:41;;;;;;;2.10;1.13;;;16.80;1.00;;;;;;5054084;28;20493;-54
2022/05/26 02:25:11;;;;;;;2.67;1.10;;;16.80;1.00;;;;;;5050446;28;20457;-54
2022/05/26 02:27:38;;;;;;;4.93;1.33;;;16.80;1.00;;;;;;5052179;28;20527;-54
2022/05/26 02:30:06;;;;;;;1.77;1.50;;;16.90;1.00;;;;;;5049736;28;20787;-57
2022/05/26 02:32:37;;;;;;;2.57;1.20;;;16.80;1.00;;;;;;5052024;28;20451;-53
2022/05/26 02:35:16;;;;;;;1.37;1.27;;;16.80;1.00;;;;;;5048102;28;20442;-57
2022/05/26 02:37:44;;;;;;;2.53;1.20;;;16.90;1.00;;;;;;5050118;28;20472;-52
2022/05/26 02:40:10;;;;;;;2.07;1.50;;;16.90;1.00;;;;;;5050391;28;20461;-53
2022/05/26 02:42:42;;;;;;;1.87;1.10;;;16.90;1.00;;;;;;5051323;28;20455;-55
2022/05/26 02:45:08;;;;;;;2.20;1.30;;;16.90;1.00;;;;;;5053284;28;20557;-54
2022/05/26 02:47:47;;;;;;;2.53;1.50;;;16.90;1.00;;;;;;5060301;28;20526;-55
2022/05/26 02:50:25;;;;;;;2.30;1.70;;;16.70;1.00;;;;;;5051388;28;20450;-53
2022/05/26 02:53:17;;;;;;;2.37;1.53;;;16.70;1.00;;;;;;5050155;28;20461;-55
2022/05/26 02:55:59;;;;;;;3.00;1.60;;;16.60;1.00;;;;;;5052073;28;20956;-55
2022/05/26 02:58:41;;;;;;;4.10;1.50;;;16.70;1.00;;;;;;5049119;28;20478;-54
2022/05/26 03:01:26;;;;;;;3.47;1.47;;;16.70;1.00;;;;;;5052276;28;20448;-54
2022/05/26 03:03:58;;;;;;;3.13;1.60;;;16.70;1.00;;;;;;5050225;28;20446;-54
2022/05/26 03:06:33;;;;;;;2.70;1.83;;;16.80;1.00;;;;;;5053017;28;20450;-54
2022/05/26 03:09:00;;;;;;;2.00;1.10;;;16.80;1.00;;;;;;5050046;28;20473;-56
2022/05/26 03:11:29;;;;;;;2.03;1.17;;;17.10;1.00;;;;;;5050685;28;20453;-54
2022/05/26 03:13:54;;;;;;;1.80;1.10;;;17.10;1.00;;;;;;5056283;28;20452;-54
2022/05/26 03:16:20;;;;;;;1.10;1.00;;;17.30;1.00;;;;;;5049997;28;20928;-58
2022/05/26 03:18:46;;;;;;;4.00;1.00;;;17.30;1.00;;;;;;5050224;28;20916;-56
2022/05/26 03:21:12;;;;;;;1.17;1.07;;;17.40;1.00;;;;;;5035120;28;20314;-54
2022/05/26 03:23:39;;;;;;;1.30;0.87;;;17.40;1.00;;;;;;5029110;28;20549;-55
2022/05/26 03:26:08;;;;;;;1.13;0.90;;;17.40;1.00;;;;;;5029994;28;20447;-54
2022/05/26 03:28:34;;;;;;;2.40;1.00;;;17.40;1.00;;;;;;5031549;28;22032;-54
2022/05/26 03:31:04;;;;;;;2.50;1.07;;;17.50;1.00;;;;;;5048870;28;20857;-56
2022/05/26 03:40:45;;;;;;;1.90;1.30;;;17.50;1.00;;;;;;5052959;28;20447;-54
2022/05/26 03:41:44;;;;;;;1.27;0.80;;;17.40;1.00;;;;;;5049377;28;20587;-55
2022/05/26 03:44:09;;;;;;;1.83;1.17;;;17.70;1.00;;;;;;5049726;28;20469;-53
2022/05/26 03:46:38;;;;;;;1.43;0.70;;;17.80;1.00;;;;;;5044966;28;20220;-56
2022/05/26 03:49:03;;;;;;;1.77;1.10;;;17.70;1.00;;;;;;5051129;28;20214;-56
2022/05/26 03:51:29;;;;;;;2.40;1.03;;;17.70;1.00;;;;;;5049808;28;20417;-60
2022/05/26 03:53:54;;;;;;;1.63;1.20;;;17.70;1.00;;;;;;5048910;28;20188;-54
2022/05/26 03:56:20;;;;;;;1.07;0.97;;;17.80;1.00;;;;;;5048013;28;20195;-53
2022/05/26 03:58:45;;;;;;;0.90;0.90;;;17.80;1.00;;;;;;5051464;28;20220;-56
2022/05/26 04:01:11;;;;;;;1.50;1.17;;;18.00;1.00;;;;;;5056115;28;20232;-56
2022/05/26 04:03:37;;;;;;;0.90;0.73;;;;;;;;;;5060816;28;20717;-57
2022/05/26 04:06:06;;;;;;;0.90;0.80;;;17.90;1.00;;;;;;5061247;28;20199;-55
2022/05/26 04:08:31;;;;;;;4.17;1.00;;;17.90;1.00;;;;;;5049458;28;20470;-56
2022/05/26 04:10:57;;;;;;;1.63;1.00;;;18.10;1.00;;;;;;5051149;28;20446;-54
2022/05/26 04:13:23;;;;;;;3.20;1.00;;;18.10;1.00;;;;;;5049288;28;20180;-54
2022/05/26 04:15:48;;;;;;;1.20;0.90;;;18.20;1.00;;;;;;5048375;28;20184;-54
2022/05/26 04:18:14;;;;;;;1.00;0.87;;;18.10;1.00;;;;;;5064223;28;20237;-56
2022/05/26 04:20:40;;;;;;;4.03;1.10;;;18.10;1.00;;;;;;5048231;28;20189;-56
2022/05/26 04:23:06;;;;;;;2.70;1.10;;;18.10;1.00;;;;;;5054375;28;20184;-56
2022/05/26 04:25:32;;;;;;;2.03;1.80;;;18.10;1.00;;;;;;5055765;28;20447;-54
2022/05/26 04:27:57;;;;;;;1.10;1.00;;;18.20;1.00;;;;;;5050268;28;20214;-53
2022/05/26 04:30:23;;;;;;;2.00;0.87;;;18.30;1.00;;;;;;5046471;28;20180;-56
2022/05/26 04:32:50;;;;;;;1.10;1.00;;;18.30;1.00;;;;;;5049558;28;20525;-54
2022/05/26 04:35:16;;;;;;;1.17;0.70;;;18.40;1.00;;;;;;5045791;28;20450;-54
2022/05/26 04:37:41;;;;;;;1.00;0.87;;;18.40;1.00;;;;;;5050871;28;22156;-55
2022/05/26 04:40:09;;;;;;;0.93;0.80;;;18.70;1.00;;;;;;5047373;28;20188;-55
2022/05/26 04:42:37;;;;;;;3.27;1.20;;;18.70;1.00;;;;;;5048656;28;20188;-55
2022/05/26 04:45:03;;;;;;;1.93;1.20;;;19.10;1.00;;;;;;5047681;28;20471;-53
2022/05/26 04:47:29;;;;;;;1.00;0.90;;;18.80;1.00;;;;;;5051447;28;20477;-55
2022/05/26 04:49:54;;;;;;;1.20;1.10;;;18.80;1.00;;;;;;5046608;28;20454;-55
2022/05/26 04:52:23;;;;;;;1.40;1.00;;;18.80;1.00;;;;;;5050173;28;20186;-54
2022/05/26 04:54:50;;;;;;;1.50;1.20;;;19.00;1.00;;;;;;5047417;28;20274;-52
2022/05/26 04:57:19;;;;;;;1.43;0.73;;;19.00;1.00;;;;;;5055266;28;20453;-56
2022/05/26 04:59:45;;;;;;;2.73;1.30;;;19.10;1.00;;;;;;5050927;28;20545;-56
2022/05/26 05:02:13;;;;;;;1.70;1.17;;;19.10;1.00;;;;;;5049459;28;20537;-53
2022/05/26 05:04:41;;;;;;;2.03;0.90;;;19.10;1.00;;;;;;5047889;28;20329;-53
2022/05/26 05:07:08;;;;;;;1.77;0.90;;;19.10;1.00;;;;;;5048725;28;20474;-54
2022/05/26 05:09:34;;;;;;;1.57;1.03;;;19.20;1.00;;;;;;5048863;28;20839;-54
2022/05/26 05:11:59;;;;;;;1.13;0.90;;;19.30;1.00;;;;;;5051746;28;20421;-55
2022/05/26 05:14:25;;;;;;;1.47;0.93;;;19.40;1.00;;;;;;5048634;28;20216;-56
2022/05/26 05:16:51;;;;;;;1.40;0.73;;;19.40;1.00;;;;;;5045756;28;20180;-56
2022/05/26 05:19:18;;;;;;;2.43;0.83;;;19.10;1.00;;;;;;5046310;28;20438;-54
2022/05/26 05:22:00;;;;;;;2.30;1.10;;;19.00;1.00;;;;;;5049756;28;20187;-52
2022/05/26 05:24:33;;;;;;;4.43;1.03;;;18.90;1.00;;;;;;5044617;28;20446;-56
2022/05/26 05:27:05;;;;;;;1.40;1.00;;;18.70;1.00;;;;;;5048851;28;20430;-54
2022/05/26 05:29:35;;;;;;;1.63;0.80;;;18.70;1.00;;;;;;5051757;28;20967;-54
2022/05/26 05:32:21;;;;;;;1.93;1.00;;;18.90;1.00;;;;;;5041825;28;20449;-54
2022/05/26 05:34:51;;;;;;;1.97;1.00;;;19.00;1.00;;;;;;5049699;28;20429;-55
2022/05/26 05:37:17;;;;;;;2.10;1.00;;;19.00;1.00;;;;;;5044862;28;20442;-54
2022/05/26 05:39:43;;;;;;;1.00;0.77;;;19.10;1.00;;;;;;5045318;28;20518;-52
2022/05/26 05:42:08;;;;;;;2.93;0.90;;;19.20;1.00;;;;;;5047214;28;20597;-54
2022/05/26 05:44:34;;;;;;;1.10;0.83;;;19.00;1.00;;;;;;5047548;28;20180;-54
2022/05/26 05:47:01;;;;;;;1.90;0.90;;;19.00;1.00;;;;;;5054086;28;20646;-55
2022/05/26 05:49:29;;;;;;;1.53;0.90;;;19.20;1.00;;;;;;5047496;28;20274;-54
2022/05/26 05:52:03;;;;;;;2.20;1.07;;;19.20;1.00;;;;;;5046663;28;20538;-55
2022/05/26 05:54:30;;;;;;;1.53;0.93;;;19.10;1.00;;;;;;5049370;28;20468;-56
2022/05/26 05:56:56;;;;;;;1.00;0.80;;;;;;;;;;5052214;28;20472;-57
2022/05/26 05:59:22;;;;;;;2.40;0.80;;;19.20;1.00;;;;;;5051728;28;20432;-56
2022/05/26 06:01:47;;;;;;;2.30;0.90;;;19.30;1.00;;;;;;5065546;28;20464;-55
2022/05/26 06:04:13;;;;;;;2.23;1.10;;;19.40;1.00;;;;;;5048707;28;20180;-56
2022/05/26 06:06:43;;;;;;;1.30;0.93;;;19.30;1.00;;;;;;5051791;28;20673;-53
2022/05/26 06:09:13;;;;;;;1.27;1.00;;;19.00;1.00;;;;;;5053134;28;20884;-56
2022/05/26 06:11:42;;;;;;;1.53;0.90;;;19.00;1.00;;;;;;5048559;28;20428;-55
2022/05/26 06:14:08;;;;;;;2.07;0.87;;;18.90;1.00;;;;;;5053551;28;20447;-54
2022/05/26 06:16:35;;;;;;;4.57;1.80;;;18.90;1.00;;;;;;5057558;28;20996;-56
2022/05/26 06:19:01;;;;;;;1.27;0.97;;;18.90;1.00;;;;;;5060209;28;20465;-57
2022/05/26 06:21:26;;;;;;;1.27;1.00;;;18.90;1.00;;;;;;5055966;28;21053;-56
2022/05/26 06:23:56;;;;;;;2.23;1.00;;;18.80;1.00;;;;;;5050111;28;20983;-55
2022/05/26 06:26:26;;;;;;;2.40;1.07;;;18.70;1.00;;;;;;5050577;28;20550;-56
2022/05/26 06:31:36;;;;;;;2.73;1.03;;;18.50;1.00;;;;;;5054515;28;20451;-56
2022/05/26 06:39:12;;;;;;;0.97;0.73;;;18.70;1.00;;;;;;5051554;28;20541;-54
2022/05/26 06:44:22;;;;;;;0.90;0.90;;;19.00;1.00;;;;;;5050545;28;20331;-58
2022/05/26 06:46:48;;;;;;;1.10;0.90;;;19.20;1.00;;;;;;5050851;28;20561;-56
2022/05/26 06:49:13;;;;;;;1.63;0.90;;;19.20;1.00;;;;;;5052373;28;20230;-56
2022/05/26 06:51:39;;;;;;;1.67;1.03;;;19.10;1.00;;;;;;5048763;28;20508;-55
2022/05/26 06:54:08;;;;;;;3.27;1.07;;;19.30;1.00;;;;;;5050178;28;20242;-56
2022/05/26 06:56:34;;;;;;;1.40;0.90;;;;;;;;;;5050437;28;20583;-55
2022/05/26 06:58:59;;;;;;;2.00;1.10;;;19.70;1.00;;;;;;5051361;28;20534;-55
2022/05/26 07:01:26;;;;;;;3.30;0.97;;;19.70;1.00;;;;;;5051677;28;20429;-53
2022/05/26 07:03:51;;;;;;;2.40;0.90;;;19.60;1.00;;;;;;5056365;28;20196;-55
2022/05/26 07:06:20;;;;;;;1.00;0.80;;;19.60;1.00;;;;;;5050985;28;20457;-54
2022/05/26 07:08:46;;;;;;;7.40;1.00;;;19.70;1.00;;;;;;5050998;28;20215;-53
2022/05/26 07:11:13;;;;;;;1.33;1.00;;;18.00;1.00;;;;;;5054767;28;20506;-55
2022/05/26 07:13:39;;;;;;;1.07;0.70;;;19.60;1.00;;;;;;5050269;28;20461;-53
2022/05/26 07:16:10;;;;;;;1.67;0.97;;;19.70;1.00;;;;;;5055878;28;20470;-54
2022/05/26 07:18:36;;;;;;;0.90;0.70;;;19.90;1.00;;;;;;5053423;28;20196;-53
2022/05/26 07:21:06;;;;;;;2.00;0.70;;;19.90;1.00;;;;;;5054509;28;20442;-57
2022/05/26 07:23:32;;;;;;;3.00;1.10;;;19.90;1.00;;;;;;5049799;28;20458;-57
2022/05/26 07:25:58;;;;;;;3.27;0.83;;;20.00;1.00;;;;;;5048430;28;20480;-54
2022/05/26 07:28:23;;;;;;;1.50;0.97;;;20.20;1.00;;;;;;5053934;28;20473;-56
2022/05/26 07:30:49;;;;;;;1.30;0.93;;;20.20;1.00;;;;;;5045215;28;20188;-58
2022/05/26 07:33:15;;;;;;;1.83;0.80;;;20.30;1.00;;;;;;5054941;28;20195;-55
2022/05/26 07:35:41;;;;;;;1.73;0.80;;;20.50;1.00;;;;;;5049065;28;20450;-55
2022/05/26 07:43:37;;;;;;;1.40;0.80;;;20.20;1.00;;;;;;5051425;28;20465;-53
2022/05/26 07:46:06;;;;;;;2.20;0.70;;;20.10;1.00;;;;;;5050108;28;20478;-55
2022/05/26 07:48:32;;;;;;;1.30;1.00;;;20.10;1.00;;;;;;5050495;28;20866;-53
2022/05/26 07:50:57;;;;;;;3.53;1.10;;;20.20;1.00;;;;;;5049209;28;20417;-56
2022/05/26 07:53:23;;;;;;;1.90;0.93;;;20.20;1.00;;;;;;5050434;28;21871;-54
2022/05/26 07:55:49;;;;;;;2.00;0.73;;;20.40;1.00;;;;;;5050353;28;20554;-57
2022/05/26 07:58:15;;;;;;;4.03;1.10;;;20.40;1.00;;;;;;5046965;28;20196;-55
2022/05/26 08:00:41;;;;;;;1.53;1.10;;;20.20;1.00;;;;;;5047285;28;20825;-56
2022/05/26 08:03:07;;;;;;;3.53;1.60;;;20.20;1.00;;;;;;5048387;28;20180;-54
2022/05/26 08:05:34;;;;;;;1.60;1.30;;;20.30;1.00;;;;;;5050012;28;20504;-55
2022/05/26 08:07:59;;;;;;;2.80;1.10;;;20.30;1.00;;;;;;5045283;28;21042;-55
2022/05/26 08:10:25;;;;;;;2.50;1.03;;;20.40;1.00;;;;;;5045845;28;20421;-55
2022/05/26 08:12:50;;;;;;;0.97;0.80;;;20.70;1.00;;;;;;5051177;28;20191;-53
2022/05/26 08:15:16;;;;;;;1.37;1.20;;;20.80;1.00;;;;;;5048245;28;20203;-56
2022/05/26 08:17:42;;;;;;;1.67;1.07;;;20.80;1.00;;;;;;5048970;28;20199;-55
2022/05/26 08:20:09;;;;;;;0.90;0.77;;;20.80;1.00;;;;;;5048248;28;20650;-57
2022/05/26 08:22:34;;;;;;;1.57;1.10;;;20.70;1.00;;;;;;5051883;28;20188;-56
2022/05/26 08:25:00;;;;;;;2.37;1.00;;;20.80;1.00;;;;;;5047788;28;20834;-55
2022/05/26 08:27:26;;;;;;;0.90;0.80;;;20.90;1.00;;;;;;5049910;28;20219;-53
2022/05/26 08:29:54;;;;;;;2.30;0.87;;;20.90;1.00;;;;;;5049132;28;20180;-56
2022/05/26 08:32:21;;;;;;;1.53;1.10;;;20.90;1.00;;;;;;5048951;28;20855;-53
2022/05/26 08:34:47;;;;;;;2.13;1.00;;;20.90;1.00;;;;;;5045993;28;20413;-55
2022/05/26 08:37:22;;;;;;;1.63;0.90;;;20.90;1.00;;;;;;5050602;28;21490;-55
2022/05/26 08:39:49;;;;;;;1.37;0.77;;;20.90;1.00;;;;;;5049923;28;20200;-57
2022/05/26 08:42:22;;;;;;;3.23;0.80;;;21.00;1.00;;;;;;5051077;28;20518;-54
2022/05/26 08:44:48;;;;;;;0.63;0.60;;;21.00;1.00;;;;;;5049155;28;20955;-55
2022/05/26 08:47:18;;;;;;;1.93;1.00;;;21.30;1.00;;;;;;5056991;28;20493;-55
2022/05/26 08:49:50;;;;;;;1.33;1.10;;;21.70;1.00;;;;;;5053729;28;21587;-56
2022/05/26 08:52:42;;;;;;;1.03;0.80;;;21.70;1.00;;;;;;5051235;28;20430;-56
2022/05/26 08:55:19;;;;;;;2.40;1.20;;;21.50;1.00;;;;;;5039864;28;20451;-55
2022/05/26 08:57:55;;;;;;;2.20;0.70;;;21.20;1.00;;;;;;5057716;28;21122;-55
2022/05/26 09:00:23;;;;;;;3.27;1.67;;;21.10;1.00;;;;;;5055979;28;20420;-53
2022/05/26 09:02:57;;;;;;;1.13;0.90;;;21.20;1.00;;;;;;5051861;28;20413;-56
2022/05/26 09:05:22;;;;;;;2.90;1.10;;;21.30;1.00;;;;;;5050601;28;20450;-55
2022/05/26 09:13:41;;;;;;;3.00;1.10;;;21.20;1.00;;;;;;5049019;28;20441;-54
2022/05/26 09:16:08;;;;;;;4.60;1.30;;;21.30;1.00;;;;;;5050828;28;20471;-57
2022/05/26 09:18:34;;;;;;;1.03;0.93;;;21.40;1.00;;;;;;5047987;28;21012;-55
2022/05/26 09:21:31;;;;;;;2.03;1.10;;;21.10;1.00;;;;;;5049900;28;20453;-57
2022/05/26 09:24:17;;;;;;;1.73;1.30;;;20.50;1.00;;;;;;5045001;28;20466;-56
2022/05/26 09:26:51;;;;;;;2.10;1.03;;;20.40;1.00;;;;;;5048828;28;20504;-56
2022/05/26 09:29:17;;;;;;;1.40;0.90;;;20.70;1.00;;;;;;5053735;28;20486;-55
2022/05/26 09:31:48;;;;;;;0.90;0.80;;;20.70;1.00;;;;;;5058468;28;21018;-55
2022/05/26 09:34:14;;;;;;;3.40;1.10;;;21.20;1.00;;;;;;5060853;28;20454;-55
2022/05/26 09:36:49;;;;;;;1.80;0.80;;;21.10;1.00;;;;;;5053417;28;20544;-56
2022/05/26 09:39:20;;;;;;;1.00;0.87;;;21.10;1.00;;;;;;5055615;28;20187;-56
2022/05/26 09:41:50;;;;;;;1.73;0.80;;;21.00;1.00;;;;;;5059762;28;20519;-56
2022/05/26 09:44:29;;;;;;;1.53;0.73;;;21.10;1.00;;;;;;5052388;28;20465;-56
2022/05/26 09:46:57;;;;;;;1.67;0.80;;;21.10;1.00;;;;;;5052184;28;20559;-54
2022/05/26 09:49:26;;;;;;;2.10;1.00;;;21.30;1.00;;;;;;5052830;28;20438;-57
2022/05/26 09:52:15;;;;;;;2.23;0.80;;;21.70;1.00;;;;;;5066257;28;20434;-56
2022/05/26 09:54:41;;;;;;;2.30;0.90;;;21.80;1.00;;;;;;5053341;28;20461;-56
2022/05/26 09:57:25;;;;;;;3.40;0.80;;;21.80;1.00;;;;;;5053516;28;20804;-56
2022/05/26 09:59:51;;;;;;;2.10;0.70;;;21.50;1.00;;;;;;5047440;28;20199;-55
2022/05/26 10:02:36;;;;;;;1.73;0.60;;;;;;;;;;5062478;28;20851;-56
2022/05/26 10:05:35;;;;;;;2.17;0.80;;;21.20;1.00;;;;;;5051594;28;20188;-56
2022/05/26 10:08:25;;;;;;;1.27;1.00;;;21.50;1.00;;;;;;5060567;28;20440;-56
2022/05/26 10:10:59;;;;;;;1.13;0.83;;;22.00;1.00;;;;;;5051889;28;20416;-53
2022/05/26 10:13:40;;;;;;;1.07;0.70;;;21.90;1.00;;;;;;5058040;28;20480;-54
2022/05/26 10:16:08;;;;;;;1.23;0.90;;;21.40;1.00;;;;;;5055351;28;20950;-55
2022/05/26 10:19:08;;;;;;;1.20;0.60;;;21.80;1.00;;;;;;5065425;28;20458;-55
2022/05/26 10:21:52;;;;;;;1.10;0.57;;;22.20;1.00;;;;;;5052533;28;20747;-55
2022/05/26 10:24:29;;;;;;;3.03;0.90;;;22.10;1.00;;;;;;5051276;28;20441;-56
2022/05/26 10:27:27;;;;;;;1.47;0.90;;;22.10;1.00;;;;;;5049376;28;20453;-56
2022/05/26 10:30:11;;;;;;;1.50;1.00;;;21.80;1.00;;;;;;5046794;28;20994;-54
2022/05/26 10:33:14;;;;;;;1.77;0.83;;;21.80;1.00;;;;;;5047370;28;20501;-55
2022/05/26 10:35:58;;;;;;;1.10;0.70;;;21.80;1.00;;;;;;5050960;28;20735;-55
2022/05/26 10:38:24;;;;;;;1.07;0.97;;;21.90;1.00;;;;;;5051622;28;20450;-54
2022/05/26 10:41:14;;;;;;;0.80;0.70;;;22.00;1.00;;;;;;5050984;28;20421;-54
2022/05/26 10:43:56;;;;;;;5.73;0.90;;;22.00;1.00;;;;;;5056056;28;20671;-55
2022/05/26 10:46:26;;;;;;;2.40;0.90;;;22.00;1.00;;;;;;5062509;28;20522;-54
2022/05/26 10:49:04;;;;;;;5.10;1.43;;;22.10;1.00;;;;;;5051151;28;20557;-55
2022/05/26 10:51:39;;;;;;;1.13;0.77;;;22.00;1.00;;;;;;5051050;28;20496;-55
2022/05/26 10:54:15;;;;;;;2.93;0.80;;;22.00;1.00;;;;;;5047870;28;20464;-54
2022/05/26 10:57:11;;;;;;;4.07;0.90;;;22.10;1.00;;;;;;5047190;28;20446;-54
2022/05/26 10:59:45;;;;;;;2.70;1.20;;;22.10;1.00;;;;;;5042305;28;20420;-55
2022/05/26 11:02:25;;;;;;;1.53;0.90;;;22.20;1.00;;;;;;5053045;28;20442;-55
2022/05/26 11:05:08;;;;;;;2.50;0.70;;;22.20;1.00;;;;;;5050403;28;20479;-55
2022/05/26 11:07:40;;;;;;;1.20;0.70;;;22.20;1.00;;;;;;5062665;28;20788;-53
2022/05/26 11:10:22;;;;;;;3.43;0.63;;;22.40;1.00;;;;;;5066526;28;20599;-56
2022/05/26 11:13:28;;;;;;;2.80;0.87;;;22.40;1.00;;;;;;5065095;28;20797;-54
2022/05/26 11:19:23;;;;;;;0.70;0.60;;;22.60;1.00;;;;;;5051528;28;20572;-55
2022/05/26 11:21:51;;;;;;;1.00;0.87;;;22.20;1.00;;;;;;5050572;28;20467;-54
2022/05/26 11:24:17;;;;;;;1.10;0.73;;;;;;;;;;5051932;28;20435;-54
2022/05/26 11:27:07;;;;;;;1.00;0.50;;;22.30;1.00;;;;;;5047571;28;20815;-54
2022/05/26 11:29:45;;;;;;;2.00;0.80;;;22.50;1.00;;;;;;5047990;28;20450;-55
2022/05/26 11:38:53;;;;;;;1.60;0.60;;;22.50;1.00;;;;;;5049588;28;20447;-56
2022/05/26 11:41:28;;;;;;;1.80;0.80;;;22.50;1.00;;;;;;5031699;28;20795;-53
2022/05/26 11:44:10;;;;;;;0.93;0.80;;;25.10;1.00;;;;;;5047881;28;20428;-56
2022/05/26 11:46:41;;;;;;;1.50;0.80;;;22.80;1.00;;;;;;5049100;28;20507;-56
2022/05/26 11:49:10;;;;;;;2.10;1.10;;;22.80;1.00;;;;;;5056437;28;20503;-58
2022/05/26 11:51:42;;;;;;;2.27;0.80;;;22.60;1.00;;;;;;5053897;28;20942;-55
2022/05/26 11:54:31;;;;;;;5.63;0.70;;;22.40;1.00;;;;;;5056462;28;20424;-52
2022/05/26 11:56:57;;;;;;;1.63;0.70;;;22.20;1.00;;;;;;5048404;28;20906;-54
2022/05/26 11:59:32;;;;;;;1.73;0.90;;;22.10;1.00;;;;;;5048916;28;20416;-54
2022/05/26 12:02:00;;;;;;;0.70;0.63;;;21.80;1.00;;;;;;5050118;28;20184;-52
2022/05/26 12:04:35;;;;;;;1.13;0.70;;;21.80;1.00;;;;;;5049802;28;20446;-53
2022/05/26 12:07:04;;;;;;;3.40;0.90;;;21.70;1.00;;;;;;5051312;28;20936;-55
2022/05/26 12:09:52;;;;;;;1.47;0.90;;;21.70;1.00;;;;;;5057405;28;20416;-59
2022/05/26 12:12:17;;;;;;;2.00;0.83;;;21.70;1.00;;;;;;5050519;28;20422;-60
2022/05/26 12:14:43;;;;;;;2.90;1.20;;;;;;;;;;5051955;28;21910;-59
2022/05/26 12:17:33;;;;;;;1.50;1.10;;;22.80;1.00;;;;;;5050133;28;20226;-59
2022/05/26 12:20:08;;;;;;;4.60;1.10;;;23.30;1.00;;;;;;5047210;28;20445;-59
2022/05/26 12:22:37;;;;;;;2.40;1.20;;;23.60;1.00;;;;;;5049685;28;20420;-58
2022/05/26 12:25:14;;;;;;;1.00;0.90;;;23.70;1.00;;;;;;5041875;28;20987;-58
2022/05/26 12:27:49;;;;;;;2.73;1.10;;;22.70;1.00;;;;;;5041681;28;20452;-60
2022/05/26 12:30:45;;;;;;;2.13;1.40;;;22.70;1.00;;;;;;5047534;28;20433;-60
2022/05/26 12:33:20;;;;;;;3.03;1.17;;;22.40;1.00;;;;;;5047620;28;20837;-59
2022/05/26 12:36:21;;;;;;;1.43;1.10;;;22.60;1.00;;;;;;5048331;28;20470;-60
2022/05/26 12:38:58;;;;;;;4.70;1.17;;;23.20;1.00;;;;;;5041448;28;21193;-58
2022/05/26 12:41:47;;;;;;;4.60;1.50;;;23.80;1.00;;;;;;5047846;28;20433;-59
2022/05/26 12:44:51;;;;;;;3.27;1.20;;;23.30;1.00;;;;;;5044912;28;20922;-59
2022/05/26 12:47:26;;;;;;;1.20;1.10;;;23.10;1.00;;;;;;5049492;28;20459;-60
2022/05/26 12:50:06;;;;;;;2.27;1.30;;;22.80;1.00;;;;;;5048475;28;20454;-61
2022/05/26 12:52:38;;;;;;;3.30;1.30;;;22.50;1.00;;;;;;5041715;28;20424;-60
2022/05/26 12:55:35;;;;;;;2.07;1.53;;;22.30;1.00;;;;;;5044574;28;20785;-59
2022/05/26 12:58:09;;;;;;;4.07;1.67;;;22.30;1.00;;;;;;5042553;28;20527;-59
2022/05/26 13:01:04;;;;;;;2.80;1.73;;;22.40;1.00;;;;;;5045882;28;20789;-60
2022/05/26 13:03:32;;;;;;;2.00;1.20;;;22.70;1.00;;;;;;5042151;28;20490;-58
2022/05/26 13:06:29;;;;;;;2.47;1.47;;;22.90;1.00;;;;;;5053472;28;20439;-60
2022/05/26 13:09:05;;;;;;;1.10;1.00;;;23.00;1.00;;;;;;5052348;28;20448;-59
2022/05/26 13:11:42;;;;;;;2.27;1.23;;;23.00;1.00;;;;;;5048554;28;20918;-58
2022/05/26 13:14:18;;;;;;;1.83;1.10;;;23.10;1.00;;;;;;5054870;28;20424;-60
2022/05/26 13:16:43;;;;;;;1.20;0.80;;;23.20;1.00;;;;;;5049845;28;20442;-59
2022/05/26 13:19:19;;;;;;;2.27;1.40;;;23.40;1.00;;;;;;5047850;28;20469;-59
2022/05/26 13:21:51;;;;;;;1.73;0.80;;;23.60;1.00;;;;;;5048282;28;20183;-60
2022/05/26 13:24:30;;;;;;;2.70;0.90;;;23.60;1.00;;;;;;5048301;28;20446;-60
2022/05/26 13:27:11;;;;;;;1.20;1.10;;;23.50;1.00;;;;;;5029384;28;20978;-59
2022/05/26 13:29:43;;;;;;;1.40;0.63;;;23.40;1.00;;;;;;5047981;28;20804;-59
2022/05/26 13:34:58;;;;;;;1.03;0.93;;;22.40;1.00;;;;;;5051507;28;20415;-59
2022/05/26 13:37:27;;;;;;;2.03;0.80;;;22.30;1.00;;;;;;5044238;28;20420;-60
2022/05/26 13:40:16;;;;;;;2.00;1.00;;;22.00;1.00;;;;;;5056468;28;20195;-59
2022/05/26 13:42:46;;;;;;;3.17;1.00;;;21.90;1.00;;;;;;5046169;28;20474;-60
2022/05/26 13:45:32;;;;;;;1.13;1.00;;;21.70;1.00;;;;;;5048507;28;20829;-61
2022/05/26 13:48:35;;;;;;;1.67;1.10;;;22.10;1.00;;;;;;5046471;28;20441;-60
2022/05/26 13:51:17;;;;;;;1.80;0.90;;;21.70;1.00;;;;;;5047646;28;20424;-60
2022/05/26 13:53:48;;;;;;;0.97;0.70;;;21.70;1.00;;;;;;5050148;28;20452;-56
2022/05/26 13:56:34;;;;;;;1.37;0.70;;;21.80;1.00;;;;;;5048420;28;20421;-56
2022/05/26 13:59:11;;;;;;;1.27;0.90;;;22.10;1.00;;;;;;5045823;28;20421;-56
2022/05/26 14:01:46;;;;;;;2.83;0.90;;;22.40;1.00;;;;;;5045117;28;20760;-56
2022/05/26 14:04:34;;;;;;;1.40;0.90;;;22.70;1.00;;;;;;5043736;28;20905;-55
2022/05/26 14:07:01;;;;;;;1.10;0.97;;;23.10;1.00;;;;;;5048346;28;20458;-54
2022/05/26 14:09:30;;;;;;;0.97;0.87;;;23.20;1.00;;;;;;5045272;28;20490;-56